Home   Weather   Italy   Rimini   Past weeks
Flag for Italy

Past Weather in Rimini, Italy — Yesterday and Last 2 Weeks

Currently: 77 °F. Sunny. (Weather station: Rimini Airport, Italy). See more current weather

Past Weather in Rimini — Graph

°F

Rimini Temperature Yesterday

Maximum temperature yesterday: 79 °F (at 9:50 am)
Minimum temperature yesterday: 66 °F (at 5:50 am)
Average temperature yesterday: 73 °F

High & Low Weather Summary for the Past Weeks

 TemperatureHumidityPressure
High86 °F (Jun 5, 4:50 pm)100% (Jun 8, 2:20 am)30.21 "Hg (Jun 8, 2:20 am)
Low46 °F (Jun 1, 5:20 am)35% (Jun 1, 9:20 am)29.98 "Hg (Jun 1, 5:50 pm)
Average71 °F63%30.06 "Hg
* Reported May 31 3:50 pm — Jun 15 3:20 pm, Rimini. Weather by CustomWeather, © 2021

Note: Actual official high and low records may vary slightly from our data, if they occured in-between our weather recording intervals... More about our weather records

Rimini Weather History for the Previous 24 Hours

Scroll right to see more
 ConditionsComfort  
Time TempWeatherWind HumidityBarometerVisibility
3:20 pm
Tue, Jun 15
77 °FSunny.9 mph47%30.07 "Hg10 mi
2:50 pm75 °FSunny.10 mph50%30.09 "Hg10 mi
2:20 pm77 °FPassing clouds.10 mph47%30.09 "HgN/A
1:50 pm75 °FSunny.10 mph50%30.09 "Hg10 mi
1:20 pm75 °FPassing clouds.9 mph54%30.09 "HgN/A
12:50 pm77 °FPassing clouds.9 mph51%30.09 "HgN/A
12:20 pm75 °FSunny.12 mph47%30.09 "Hg10 mi
11:50 am73 °FSunny.12 mph53%30.09 "Hg10 mi
11:20 am73 °FSunny.10 mph50%30.09 "Hg10 mi
10:50 am73 °FSunny.10 mph53%30.09 "Hg10 mi
10:20 am73 °FSunny.10 mph53%30.09 "Hg10 mi
9:50 am75 °FPassing clouds.6 mph41%30.09 "HgN/A
9:20 am73 °FPassing clouds.6 mph47%30.09 "HgN/A
8:50 am72 °FPassing clouds.8 mph53%30.09 "HgN/A
8:20 am70 °FSunny.6 mph57%30.09 "Hg10 mi
7:50 am70 °FMild.7 mph57%30.09 "HgN/A
7:20 am68 °FMild.2 mph60%30.09 "HgN/A
6:50 am63 °FMild.1 mph73%30.09 "HgN/A
6:20 am59 °FCool.1 mph77%30.09 "HgN/A
5:50 am61 °FCool.2 mph68%30.09 "HgN/A
5:20 am59 °FCool.1 mph72%30.09 "HgN/A
4:50 am61 °FCool.2 mph68%30.07 "HgN/A
4:20 am63 °FMild.2 mph64%30.07 "HgN/A
3:50 am63 °FMild.2 mph64%30.07 "HgN/A
3:20 am64 °FMild.3 mph60%30.07 "HgN/A
2:50 am64 °FMild.5 mph60%30.07 "HgN/A
2:20 am63 °FMild.2 mph68%30.07 "HgN/A
1:50 am63 °FMild.2 mph68%30.07 "HgN/A
1:20 am64 °FMild.2 mph64%30.07 "HgN/A
12:50 am64 °FMild.2 mph64%30.07 "HgN/A
12:20 am64 °FMild.2 mph64%30.07 "HgN/A
11:50 pm
Mon, Jun 14
66 °FMild.2 mph64%30.07 "HgN/A
11:20 pm70 °FMild.6 mph53%30.04 "HgN/A
10:50 pm72 °FMild.5 mph50%30.04 "HgN/A
10:20 pm72 °FMild.5 mph50%30.04 "HgN/A
9:50 pm73 °FMild.5 mph50%30.04 "HgN/A
9:20 pm73 °FMild.8 mph50%30.01 "HgN/A
8:50 pm73 °FMild.9 mph57%30.01 "HgN/A
8:20 pm75 °FMild.9 mph54%30.01 "HgN/A
7:50 pm75 °FSunny.12 mph57%30.01 "Hg10 mi
7:20 pm75 °FSunny.10 mph57%30.01 "Hg10 mi
6:50 pm75 °FSunny.14 mph54%30.01 "Hg10 mi
6:20 pm75 °FSunny.17 mph54%30.01 "Hg10 mi
5:50 pm75 °FSunny.15 mph57%30.01 "Hg10 mi
5:20 pm75 °FPassing clouds.16 mph57%30.01 "HgN/A
4:50 pm75 °FSunny.17 mph57%30.01 "Hg10 mi
4:20 pm75 °FSunny.18 mph57%30.01 "Hg10 mi
Weather by CustomWeather, © 2021

See weather overview